Time;durP1;ratioP1;P1;durP2;ratioP2;P2;SDS_P1;SDS_P2;PMS_P1;PMS_P2;Temp;Humidity;BMP_temperature;BMP_pressure;BME280_temperature;BME280_humidity;BME280_pressure;Samples;Min_cycle;Max_cycle;Signal;HPM_P1;HPM_P2
2022/06/19 00:02:31;;;;;;;;;;;22.40;99.90;;;21.46;54.18;95418.84;10471767;28;1988;-73
2022/06/19 00:07:34;;;;;;;;;;;22.30;99.90;;;21.63;54.00;95412.19;10474915;28;1821;-72
2022/06/19 00:12:37;;;;;;;;;;;22.20;99.90;;;21.37;54.84;95399.03;10473403;28;1772;-71
2022/06/19 00:17:40;;;;;;;;;;;22.20;99.90;;;21.32;54.87;95391.91;10476006;28;1995;-71
2022/06/19 00:22:43;;;;;;;;;;;22.10;99.90;;;21.15;55.48;95384.00;10470130;28;1914;-73
2022/06/19 00:27:46;;;;;;;;;;;22.00;99.90;;;21.14;55.37;95371.50;10470710;28;1868;-72
2022/06/19 00:32:49;;;;;;;;;;;21.90;99.90;;;21.17;55.07;95362.59;10460075;28;2137;-71
2022/06/19 00:37:53;;;;;;;;;;;21.80;99.90;;;21.28;54.74;95347.25;10478080;28;2022;-72
2022/06/19 00:42:58;;;;;;;;;;;21.80;99.90;;;21.46;54.13;95334.84;10476341;28;1990;-72
2022/06/19 00:48:01;;;;;;;;;;;22.00;99.90;;;21.14;54.75;95325.84;10474493;28;1810;-72
2022/06/19 00:53:04;;;;;;;;;;;21.90;99.90;;;21.04;55.27;95307.22;10474696;28;2009;-72
2022/06/19 00:58:06;;;;;;;;;;;21.70;99.90;;;21.13;55.08;95296.91;10489691;28;1966;-71
2022/06/19 01:03:09;;;;;;;;;;;21.70;99.90;;;21.27;54.64;95296.47;10473178;28;1915;-71
2022/06/19 01:08:13;;;;;;;;;;;21.80;99.90;;;21.45;53.91;95294.19;10475825;28;2236;-72
2022/06/19 01:13:18;;;;;;;;;;;22.00;99.90;;;21.27;54.61;95299.22;10468745;28;1865;-71
2022/06/19 01:18:31;;;;;;;;;;;22.00;99.90;;;21.08;55.48;95312.78;10473686;28;1920;-72
2022/06/19 01:23:43;;;;;;;;;;;21.90;99.90;;;21.03;55.72;95309.16;10467144;28;1958;-72
2022/06/19 01:28:58;;;;;;;;;;;21.60;99.90;;;20.86;57.80;95311.41;10466421;28;1949;-72
2022/06/19 01:34:02;;;;;;;;;;;21.70;99.90;;;20.63;58.79;95292.88;10478483;28;1942;-73
2022/06/19 01:39:07;;;;;;;;;;;21.50;99.90;;;20.79;58.41;95287.44;10470655;28;1998;-71
2022/06/19 01:44:11;;;;;;;;;;;21.40;99.90;;;20.57;59.27;95269.72;10474680;28;1914;-72
2022/06/19 01:49:14;;;;;;;;;;;21.40;99.90;;;20.49;58.33;95243.38;10475021;28;2008;-72
2022/06/19 01:54:16;;;;;;;;;;;21.10;99.90;;;20.91;56.96;95240.94;10475315;28;2137;-72
2022/06/19 01:59:20;;;;;;;;;;;;;;;20.94;56.18;95223.84;10472902;28;1918;-71
2022/06/19 02:04:24;;;;;;;;;;;;;;;21.00;56.25;95227.91;10465094;28;2001;-72
2022/06/19 02:09:28;;;;;;;;;;;;;;;20.99;56.63;95222.75;10476179;28;1982;-72
2022/06/19 02:14:32;;;;;;;;;;;;;;;20.81;57.03;95222.34;10479960;28;2021;-73
2022/06/19 02:19:35;;;;;;;;;;;;;;;21.02;56.92;95213.88;10482879;28;1896;-73
2022/06/19 02:24:39;;;;;;;;;;;;;;;20.60;58.11;95213.59;10474431;28;1977;-73
2022/06/19 02:29:43;;;;;;;;;;;;;;;20.69;58.78;95203.31;10478045;28;1927;-72
2022/06/19 02:34:46;;;;;;;;;;;;;;;20.50;59.43;95193.88;10473355;28;1995;-72
2022/06/19 02:39:50;;;;;;;;;;;;;;;20.19;60.34;95186.38;10474895;28;2090;-71
2022/06/19 02:44:53;;;;;;;;;;;;;;;20.19;61.18;95188.31;10475821;28;2449;-71
2022/06/19 02:49:57;;;;;;;;;;;;;;;20.11;62.02;95183.84;10473869;28;2094;-74
2022/06/19 02:55:01;;;;;;;;;;;;;;;20.05;62.27;95177.81;10472045;28;1975;-72
2022/06/19 03:00:04;;;;;;;;;;;;;;;20.11;62.45;95167.47;10471445;28;1593;-72
2022/06/19 03:05:08;;;;;;;;;;;;;;;20.08;62.82;95184.50;10481822;28;1947;-73
2022/06/19 03:10:12;;;;;;;;;;;;;;;20.08;63.22;95174.38;10477220;28;1971;-71
2022/06/19 03:15:16;;;;;;;;;;;;;;;20.29;62.44;95182.34;10474495;28;1903;-72
2022/06/19 03:20:19;;;;;;;;;;;;;;;20.06;63.65;95184.06;10470963;28;2359;-71
2022/06/19 03:25:23;;;;;;;;;;;;;;;20.21;62.85;95196.94;10480462;28;2010;-70
2022/06/19 03:30:28;;;;;;;;;;;;;;;20.37;62.77;95195.06;10474203;28;2006;-71
2022/06/19 03:35:32;;;;;;;;;;;;;;;20.58;61.43;95186.66;10475321;28;1958;-72
2022/06/19 03:40:35;;;;;;;;;;;;;;;20.66;60.64;95185.66;10475497;28;2026;-71
2022/06/19 03:45:39;;;;;;;;;;;;;;;20.83;59.09;95181.81;10465373;28;2003;-71
2022/06/19 03:50:42;;;;;;;;;;;;;;;20.87;58.58;95196.34;10471265;28;2386;-71
2022/06/19 03:55:46;;;;;;;;;;;;;;;21.15;57.41;95188.03;10472272;28;1971;-72
2022/06/19 04:00:49;;;;;;;;;;;;;;;21.20;56.72;95182.28;10468795;28;1932;-71
2022/06/19 04:05:52;;;;;;;;;;;;;;;20.89;56.55;95176.88;10476953;28;2252;-72
2022/06/19 04:10:55;;;;;;;;;;;;;;;21.09;57.28;95181.25;10466049;28;2050;-70
2022/06/19 04:15:59;;;;;;;;;;;;;;;21.02;56.32;95181.88;10471121;28;2023;-71
2022/06/19 04:21:03;;;;;;;;;;;;;;;21.05;55.31;95169.44;10476860;28;2382;-71
2022/06/19 04:26:06;;;;;;;;;;;;;;;21.61;53.77;95165.63;10472195;28;2042;-72
2022/06/19 04:31:09;;;;;;;;;;;;;;;22.10;51.62;95180.34;10482332;28;1951;-72
2022/06/19 04:36:13;;;;;;;;;;;;;;;22.25;52.09;95183.34;10471067;28;2017;-72
2022/06/19 04:41:16;;;;;;;;;;;;;;;22.60;50.64;95191.44;10480582;28;2020;-70
2022/06/19 04:46:20;;;;;;;;;;;;;;;22.86;48.93;95188.78;10481370;28;1910;-73
2022/06/19 04:51:24;;;;;;;;;;;;;;;23.04;48.22;95194.56;10465604;28;1962;-72
2022/06/19 04:56:28;;;;;;;;;;;;;;;23.13;48.46;95191.56;10468744;28;1978;-72
2022/06/19 05:01:32;;;;;;;;;;;;;;;23.44;47.95;95195.94;10473455;28;1864;-71
2022/06/19 05:06:36;;;;;;;;;;;;;;;23.58;47.90;95195.34;10472665;28;2001;-72
2022/06/19 05:11:40;;;;;;;;;;;;;;;23.92;47.27;95191.53;10476654;28;1864;-72
2022/06/19 05:16:44;;;;;;;;;;;;;;;24.27;46.19;95193.88;10479503;28;1879;-71
2022/06/19 05:21:48;;;;;;;;;;;;;;;24.38;45.92;95193.25;10467658;28;2265;-70
2022/06/19 05:26:51;;;;;;;;;;;;;;;24.75;44.37;95185.78;10474229;28;2094;-73
2022/06/19 05:31:55;;;;;;;;;;;;;;;25.10;42.80;95183.75;10467482;28;1816;-72
2022/06/19 05:36:59;;;;;;;;;;;;;;;25.27;42.66;95181.13;10470676;28;1927;-72
2022/06/19 05:42:02;;;;;;;;;;;;;;;25.48;41.77;95182.44;10472095;28;1993;-72
2022/06/19 05:47:06;;;;;;;;;;;;;;;25.41;42.16;95179.63;10476818;28;2101;-73
2022/06/19 05:52:10;;;;;;;;;;;;;;;25.36;41.06;95172.53;10480143;28;1946;-73
2022/06/19 05:57:14;;;;;;;;;;;;;;;25.92;40.06;95173.25;10477112;28;2015;-71
2022/06/19 06:02:21;;;;;;;;;;;;;;;25.91;39.88;95177.97;10470782;28;1946;-71
2022/06/19 06:07:24;;;;;;;;;;;;;;;26.17;39.75;95185.16;10483740;28;1927;-73
2022/06/19 06:12:28;;;;;;;;;;;;;;;26.68;39.19;95170.34;10472778;28;1969;-73
2022/06/19 06:17:31;;;;;;;;;;;;;;;26.95;38.22;95179.81;10476393;28;2091;-72
2022/06/19 06:22:34;;;;;;;;;;;;;;;26.91;38.84;95181.81;10481564;28;1916;-73
2022/06/19 06:27:38;;;;;;;;;;;;;;;27.34;38.27;95186.53;10477431;28;1967;-72
2022/06/19 06:32:41;;;;;;;;;;;;;;;27.59;37.77;95186.50;10478100;28;1930;-72
2022/06/19 06:37:44;;;;;;;;;;;;;;;27.90;37.12;95188.44;10473508;28;1947;-72
2022/06/19 06:42:48;;;;;;;;;;;;;;;28.25;36.32;95198.56;10480007;28;1986;-72
2022/06/19 06:47:52;;;;;;;;;;;;;;;28.61;36.08;95203.16;10480589;28;1996;-71
2022/06/19 06:52:55;;;;;;;;;;;;;;;28.68;35.61;95197.56;10480893;28;2006;-73
2022/06/19 06:57:59;;;;;;;;;;;;;;;28.81;35.38;95201.44;10470276;28;2029;-73
2022/06/19 07:03:02;;;;;;;;;;;;;;;29.02;34.71;95190.28;10478393;28;1951;-72
2022/06/19 07:08:06;;;;;;;;;;;;;;;29.11;34.71;95192.56;10479088;28;1914;-72
2022/06/19 07:13:09;;;;;;;;;;;;;;;29.51;33.82;95184.69;10479905;28;1814;-73
2022/06/19 07:18:13;;;;;;;;;;;;;;;29.52;33.25;95178.81;10480595;28;1813;-72
2022/06/19 07:23:16;;;;;;;;;;;;;;;29.60;33.28;95174.75;10476338;28;1788;-73
2022/06/19 07:28:20;;;;;;;;;;;;;;;29.84;32.19;95181.25;10485030;28;1914;-73
2022/06/19 07:33:24;;;;;;;;;;;;;;;29.73;33.89;95177.00;10471668;28;1796;-72
2022/06/19 07:38:28;;;;;;;;;;;;;;;29.92;33.53;95178.38;10473008;28;1897;-71
2022/06/19 07:43:32;;;;;;;;;;;;;;;30.22;32.49;95181.22;10471334;28;1980;-71
2022/06/19 07:53:56;;;;;;;;;;;;;;;30.75;31.77;95184.50;10472392;28;1880;-71
2022/06/19 07:59:02;;;;;;;;;;;;;;;30.82;32.43;95189.94;10482424;28;1848;-73
2022/06/19 08:04:05;;;;;;;;;;;;;;;30.68;32.77;95191.72;10471338;28;1906;-71
2022/06/19 08:09:09;;;;;;;;;;;;;;;31.00;33.22;95184.91;10473738;28;1877;-71
2022/06/19 08:14:12;;;;;;;;;;;;;;;31.20;32.97;95182.22;10468294;28;1812;-72
2022/06/19 08:19:15;;;;;;;;;;;32.00;79.40;;;31.63;30.90;95196.19;10468856;28;1879;-73
2022/06/19 08:24:18;;;;;;;;;;;31.70;75.60;;;31.39;32.29;95189.06;10474372;28;1989;-70
2022/06/19 08:29:21;;;;;;;;;;;32.00;75.70;;;31.79;30.75;95194.75;10473154;28;1865;-73
2022/06/19 08:34:24;;;;;;;;;;;32.00;73.60;;;31.47;31.02;95198.84;10506108;28;1721;-75
2022/06/19 08:39:28;;;;;;;;;;;32.10;73.10;;;31.49;32.15;95196.41;10476310;28;1863;-72
2022/06/19 08:44:31;;;;;;;;;;;32.10;73.50;;;31.65;30.81;95190.97;10467152;28;1976;-72
2022/06/19 08:49:35;;;;;;;;;;;32.20;72.50;;;31.57;30.93;95192.31;10466843;28;1830;-73
2022/06/19 08:54:38;;;;;;;;;;;32.00;72.30;;;31.89;31.81;95186.22;10473004;28;1848;-72
2022/06/19 08:59:40;;;;;;;;;;;32.30;73.30;;;31.99;31.39;95187.19;10466197;28;2205;-72
2022/06/19 09:10:04;;;;;;;;;;;32.60;76.50;;;31.92;31.21;95181.78;10468057;28;1872;-73
2022/06/19 09:15:08;;;;;;;;;;;32.50;75.50;;;31.90;32.04;95184.22;10472039;28;1853;-73
2022/06/19 09:20:11;;;;;;;;;;;32.50;75.20;;;31.94;31.33;95182.94;10472526;28;1854;-71
2022/06/19 09:25:14;;;;;;;;;;;32.50;73.80;;;32.02;31.92;95191.91;10469661;28;1910;-73
2022/06/19 09:30:18;;;;;;;;;;;32.50;74.60;;;32.20;32.37;95184.00;10474131;28;2088;-72
2022/06/19 09:35:21;;;;;;;;;;;32.50;75.90;;;32.29;31.77;95178.66;10480192;28;1866;-72
2022/06/19 09:40:24;;;;;;;;;;;32.70;74.40;;;32.33;31.45;95166.69;10465044;28;1926;-71
2022/06/19 09:45:33;;;;;;;;;;;32.80;73.80;;;32.21;31.06;95171.69;10467385;28;1986;-71
2022/06/19 09:50:36;;;;;;;;;;;32.80;72.90;;;32.41;31.16;95173.69;10483558;28;1795;-71
2022/06/19 09:55:39;;;;;;;;;;;32.90;72.60;;;32.33;32.01;95166.69;10466054;28;1785;-72
2022/06/19 10:00:42;;;;;;;;;;;32.90;73.00;;;32.84;31.66;95151.25;10468108;28;1766;-71
2022/06/19 10:05:57;;;;;;;;;;;33.20;73.20;;;32.78;30.89;95156.56;10475243;28;1992;-71
2022/06/19 10:11:00;;;;;;;;;;;33.30;72.00;;;32.43;30.45;95143.44;10467935;28;2172;-71
2022/06/19 10:16:03;;;;;;;;;;;33.20;71.10;;;32.76;30.93;95139.47;10473123;28;1909;-74
2022/06/19 10:21:06;;;;;;;;;;;33.20;72.20;;;33.45;30.15;95136.66;10468719;28;1814;-75
2022/06/19 10:26:09;;;;;;;;;;;33.70;77.30;;;33.72;29.77;95130.78;10476198;28;1976;-77
2022/06/19 10:31:12;;;;;;;;;;;34.10;77.60;;;34.04;29.91;95129.16;10484153;28;1867;-78
2022/06/19 10:36:16;;;;;;;;;;;34.40;77.70;;;34.40;27.24;95129.66;10481414;28;1848;-77
2022/06/19 10:46:37;;;;;;;;;;;;;;;35.52;26.60;95126.97;10486548;28;1975;-78
2022/06/19 10:51:42;;;;;;;;;;;;;;;36.36;25.06;95124.34;10478581;28;1773;-76
2022/06/19 10:56:45;;;;;;;;;;;;;;;36.33;25.13;95116.84;10475024;28;1780;-77
2022/06/19 11:07:11;;;;;;;;;;;;;;;36.70;25.35;95101.06;10481086;28;1918;-76
2022/06/19 11:12:14;;;;;;;;;;;;;;;37.24;24.64;95097.66;10475334;28;1812;-78
2022/06/19 11:17:19;;;;;;;;;;;;;;;37.06;25.14;95092.81;10480759;28;1816;-77
2022/06/19 11:22:23;;;;;;;;;;;;;;;36.74;23.86;95091.28;10481803;28;1758;-78
2022/06/19 11:27:26;;;;;;;;;;;;;;;36.44;25.04;95092.06;10477675;28;2033;-78
2022/06/19 11:32:30;;;;;;;;;;;;;;;35.19;26.78;95088.91;10479092;28;1808;-77
2022/06/19 11:37:34;;;;;;;;;;;;;;;34.84;27.84;95090.84;10476629;28;1942;-76
2022/06/19 11:42:37;;;;;;;;;;;;;;;34.69;28.48;95089.75;10467977;28;2181;-76
2022/06/19 11:47:42;;;;;;;;;;;;;;;34.61;28.34;95080.81;10476159;28;1898;-76
2022/06/19 11:52:45;;;;;;;;;;;;;;;34.76;28.91;95083.16;10490029;28;1932;-79
2022/06/19 11:57:49;;;;;;;;;;;;;;;35.08;27.97;95073.75;10473871;28;1871;-77
2022/06/19 12:02:53;;;;;;;;;;;;;;;34.82;28.48;95072.97;10471656;28;1880;-76
2022/06/19 12:07:57;;;;;;;;;;;;;;;35.10;27.86;95072.06;10471853;28;2421;-75
2022/06/19 12:13:00;;;;;;;;;;;;;;;35.08;28.43;95065.38;10463712;28;1973;-76
2022/06/19 12:18:03;;;;;;;;;;;;;;;35.22;27.44;95053.69;10470958;28;1860;-75
2022/06/19 12:23:07;;;;;;;;;;;;;;;34.97;26.91;95054.53;10477989;28;2200;-75
2022/06/19 12:28:11;;;;;;;;;;;;;;;35.45;26.76;95044.16;10475797;28;1894;-75
2022/06/19 12:33:15;;;;;;;;;;;;;;;35.59;26.79;95042.88;10470144;28;2268;-76
2022/06/19 12:38:18;;;;;;;;;;;;;;;35.55;27.51;95034.59;10469026;28;2188;-77
2022/06/19 12:43:23;;;;;;;;;;;;;;;35.63;27.73;95032.31;10469704;28;2328;-77
2022/06/19 12:48:26;;;;;;;;;;;;;;;35.51;26.57;95025.56;10470168;28;1997;-77
2022/06/19 12:53:31;;;;;;;;;;;;;;;35.59;26.88;95017.72;10483210;28;1783;-75
2022/06/19 12:58:34;;;;;;;;;;;;;;;35.75;25.63;95017.50;10469237;28;1901;-75
2022/06/19 13:03:38;;;;;;;;;;;;;;;35.35;25.96;95018.13;10477381;28;1904;-76
2022/06/19 13:08:42;;;;;;;;;;;;;;;35.95;25.89;95001.19;10468531;28;1934;-77
2022/06/19 13:13:45;;;;;;;;;;;;;;;36.38;26.09;95001.53;10466955;28;1789;-78
2022/06/19 13:18:48;;;;;;;;;;;;;;;36.16;24.78;94996.78;10471652;28;2333;-76
2022/06/19 13:23:52;;;;;;;;;;;;;;;36.31;24.76;94997.00;10479871;28;2141;-76
2022/06/19 13:28:56;;;;;;;;;;;;;;;35.15;28.39;94998.09;10468284;28;1994;-76
2022/06/19 13:33:59;;;;;;;;;;;;;;;35.13;29.42;94986.59;10468501;28;1858;-76
2022/06/19 13:39:05;;;;;;;;;;;;;;;35.45;28.98;94977.88;10469864;28;1854;-76
2022/06/19 13:44:08;;;;;;;;;;;;;;;35.62;28.84;94981.22;10472657;28;1772;-76
2022/06/19 13:49:12;;;;;;;;;;;;;;;35.52;28.23;94974.03;10475663;28;1921;-75
2022/06/19 13:54:16;;;;;;;;;;;;;;;35.64;27.55;94956.41;10493772;28;1852;-75
2022/06/19 13:59:20;;;;;;;;;;;;;;;35.34;28.68;94960.69;10473853;28;1870;-76
2022/06/19 14:09:45;;;;;;;;;;;;;;;35.64;28.89;94947.25;10486327;28;1921;-77
2022/06/19 14:14:50;;;;;;;;;;;;;;;35.34;28.04;94951.53;10477120;28;1875;-78
2022/06/19 14:19:53;;;;;;;;;;;;;;;35.43;27.84;94941.19;10472693;28;1838;-76
2022/06/19 14:24:56;;;;;;;;;;;;;;;35.76;27.58;94943.59;10475522;28;1760;-77
2022/06/19 14:30:00;;;;;;;;;;;;;;;35.50;28.24;94933.78;10474442;28;1913;-76
2022/06/19 14:35:03;;;;;;;;;;;;;;;35.31;28.64;94944.84;10476838;28;1774;-77
2022/06/19 14:40:07;;;;;;;;;;;;;;;35.81;28.44;94937.38;10476563;28;1868;-78
2022/06/19 14:45:10;;;;;;;;;;;;;;;35.82;27.49;94938.97;10481221;28;1891;-75
2022/06/19 14:50:14;;;;;;;;;;;;;;;35.58;29.01;94930.28;10474203;28;1902;-77
2022/06/19 14:55:17;;;;;;;;;;;;;;;35.79;28.34;94925.88;10489059;28;1806;-81
2022/06/19 15:00:21;;;;;;;;;;;;;;;35.99;27.39;94929.09;10488535;28;1900;-79
2022/06/19 15:05:24;;;;;;;;;;;;;;;36.25;26.91;94926.09;10488803;28;1910;-80
2022/06/19 15:10:27;;;;;;;;;;;;;;;35.55;27.39;94928.38;10479388;28;1722;-79
2022/06/19 15:15:31;;;;;;;;;;;;;;;35.42;28.29;94920.09;10483797;28;1868;-80
2022/06/19 15:20:35;;;;;;;;;;;;;;;35.62;27.08;94919.72;10486229;28;1838;-78
2022/06/19 15:25:40;;;;;;;;;;;;;;;35.06;29.39;94928.19;10481136;28;1976;-77
2022/06/19 15:30:44;;;;;;;;;;;;;;;35.51;28.94;94921.41;10482475;28;1864;-78
2022/06/19 15:35:47;;;;;;;;;;;;;;;35.25;29.48;94912.31;10497273;28;1813;-78
2022/06/19 15:40:51;;;;;;;;;;;;;;;35.38;29.79;94911.03;10482197;28;1861;-78
2022/06/19 15:45:55;;;;;;;;;;;;;;;36.01;28.61;94911.84;10485610;28;1894;-78
2022/06/19 15:50:59;;;;;;;;;;;;;;;35.41;29.67;94904.53;10480908;28;1869;-77
2022/06/19 15:56:02;;;;;;;;;;;;;;;35.98;29.05;94910.78;10475013;28;1915;-76
2022/06/19 16:01:05;;;;;;;;;;;;;;;35.41;29.30;94904.53;10477404;28;1853;-75
2022/06/19 16:06:09;;;;;;;;;;;;;;;35.14;29.73;94912.75;10484582;28;1918;-74
2022/06/19 16:11:12;;;;;;;;;;;;;;;34.54;30.75;94910.00;10479062;28;1845;-77
2022/06/19 16:16:16;;;;;;;;;;;;;;;34.17;31.92;94917.22;10471896;28;1804;-75
2022/06/19 16:21:20;;;;;;;;;;;;;;;34.00;32.16;94914.53;10472997;28;1820;-75
2022/06/19 16:26:23;;;;;;;;;;;;;;;33.99;32.63;94909.41;10479433;28;1910;-77
2022/06/19 16:31:27;;;;;;;;;;;;;;;34.10;32.92;94905.06;10485047;28;1808;-78
2022/06/19 16:47:14;;;;;;;;;;;;;;;33.39;32.99;94906.41;10469416;28;2006;-74
2022/06/19 16:52:18;;;;;;;;;;;;;;;33.31;34.16;94898.25;10474155;28;1851;-75
2022/06/19 16:57:23;;;;;;;;;;;;;;;32.87;34.84;94907.47;10466633;28;1934;-74
2022/06/19 17:02:26;;;;;;;;;;;;;;;32.80;35.68;94900.06;10470152;28;1805;-75
2022/06/19 17:08:40;;;;;;;;;;;;;;;32.82;36.07;94900.41;10472988;28;1922;-74
2022/06/19 17:12:55;;;;;;;;;;;;;;;32.73;36.50;94906.63;10471867;28;1772;-75
2022/06/19 17:17:58;;;;;;;;;;;;;;;32.65;36.48;94902.47;10473802;28;1868;-75
2022/06/19 17:23:01;;;;;;;;;;;;;;;32.57;37.23;94897.50;10472346;28;1817;-75
2022/06/19 17:28:05;;;;;;;;;;;;;;;32.45;37.70;94901.81;10467735;28;1906;-75
2022/06/19 17:33:09;;;;;;;;;;;;;;;32.44;38.24;94903.00;10473379;28;1923;-75
2022/06/19 17:38:12;;;;;;;;;;;;;;;32.29;38.67;94911.69;10479205;28;1842;-75
2022/06/19 17:43:17;;;;;;;;;;;;;;;32.19;40.00;94915.53;10483506;28;1904;-75
2022/06/19 17:48:20;;;;;;;;;;;;;;;32.02;40.12;94919.50;10477288;28;1918;-77
2022/06/19 17:53:24;;;;;;;;;;;;;;;31.94;40.37;94912.56;10481580;28;1843;-74
2022/06/19 17:58:27;;;;;;;;;;;;;;;31.86;41.07;94917.47;10479939;28;1963;-74
2022/06/19 18:03:37;;;;;;;;;;;;;;;31.80;40.73;94918.44;10473036;28;1678;-75
2022/06/19 18:08:41;;;;;;;;;;;;;;;31.72;40.58;94921.34;10476511;28;1984;-75
2022/06/19 18:13:45;;;;;;;;;;;;;;;31.62;40.26;94924.34;10478985;28;1925;-75
2022/06/19 18:18:48;;;;;;;;;;;;;;;31.61;39.60;94929.13;10485251;28;1817;-75
2022/06/19 18:23:52;;;;;;;;;;;;;;;31.41;39.51;94922.81;10513025;28;1814;-74
2022/06/19 18:28:55;;;;;;;;;;;;;;;31.26;39.66;94922.34;10479782;28;1914;-75
2022/06/19 18:33:59;;;;;;;;;;;;;;;31.10;40.03;94930.56;10479274;28;1727;-75
2022/06/19 18:39:02;;;;;;;;;;;;;;;30.95;39.92;94921.75;10480543;28;1854;-76
2022/06/19 18:44:05;;;;;;;;;;;;;;;30.64;40.55;94921.91;10475673;28;1952;-76
2022/06/19 18:49:09;;;;;;;;;;;;;;;30.44;41.49;94928.59;10474089;28;1918;-75
2022/06/19 18:54:13;;;;;;;;;;;;;;;30.21;42.07;94923.84;10479601;28;1803;-75
2022/06/19 18:59:17;;;;;;;;;;;;;;;29.96;42.75;94924.97;10475936;28;1838;-74
2022/06/19 19:04:20;;;;;;;;;;;;;;;29.81;42.91;94931.94;10498809;28;1849;-74
2022/06/19 19:09:24;;;;;;;;;;;;;;;29.50;43.50;94920.88;10508201;28;1898;-75
2022/06/19 19:14:28;;;;;;;;;;;;;;;29.24;43.76;94927.16;10486096;28;1876;-74
2022/06/19 19:19:32;;;;;;;;;;;;;;;29.06;44.43;94930.13;10473486;28;1749;-74
2022/06/19 19:24:35;;;;;;;;;;;;;;;28.90;44.96;94927.16;10476398;28;1867;-75
2022/06/19 19:29:38;;;;;;;;;;;;;;;28.72;45.43;94941.16;10477484;28;1922;-76
2022/06/19 19:34:42;;;;;;;;;;;;;;;28.53;45.67;94939.78;10480086;28;1725;-76
2022/06/19 19:39:46;;;;;;;;;;;;;;;28.35;45.89;94942.69;10475331;28;1817;-75
2022/06/19 19:44:49;;;;;;;;;;;;;;;28.30;46.31;94943.09;10472642;28;2202;-75
2022/06/19 19:49:53;;;;;;;;;;;;;;;28.21;46.91;94945.56;10479695;28;1973;-74
2022/06/19 19:54:59;;;;;;;;;;;;;;;27.94;47.41;94962.72;10481536;28;1787;-74
2022/06/19 20:00:02;;;;;;;;;;;;;;;27.86;48.02;94963.94;10475387;28;1905;-74
2022/06/19 20:05:06;;;;;;;;;;;;;;;27.76;48.69;94964.81;10471337;28;1869;-73
2022/06/19 20:15:31;;;;;;;;;;;;;;;27.65;48.69;94966.81;10473845;28;1855;-74
2022/06/19 20:20:34;;;;;;;;;;;;;;;27.54;49.43;94975.16;10469014;28;1889;-74
2022/06/19 20:25:37;;;;;;;;;;;;;;;27.44;50.19;94970.47;10470187;28;1909;-73
2022/06/19 20:30:42;;;;;;;;;;;28.50;87.70;;;27.24;51.93;94974.91;10475612;28;1914;-73
2022/06/19 20:35:45;;;;;;;;;;;28.20;88.80;;;27.10;53.16;94970.22;10473299;28;1827;-73
2022/06/19 20:40:48;;;;;;;;;;;28.10;89.30;;;27.05;53.13;94973.38;10471193;28;1929;-72
2022/06/19 20:45:51;;;;;;;;;;;28.00;89.60;;;26.89;53.29;94971.03;10473327;28;1887;-73
2022/06/19 20:50:54;;;;;;;;;;;27.90;89.20;;;26.87;53.27;94963.16;10472525;28;1914;-73
2022/06/19 20:55:57;;;;;;;;;;;27.80;89.30;;;26.88;53.23;94970.25;10473721;28;1949;-73
2022/06/19 21:01:00;;;;;;;;;;;27.80;89.50;;;26.73;54.31;94967.94;10466366;28;1793;-71
2022/06/19 21:06:03;;;;;;;;;;;27.70;90.10;;;26.62;54.71;94968.72;10473115;28;1788;-73
2022/06/19 21:11:06;;;;;;;;;;;27.50;90.50;;;26.58;55.43;94975.44;10469779;28;1914;-73
2022/06/19 21:16:09;;;;;;;;;;;27.50;90.90;;;26.45;55.66;94977.03;10467513;28;1991;-71
2022/06/19 21:21:12;;;;;;;;;;;27.40;91.10;;;26.32;56.92;94969.13;10471159;28;1966;-73
2022/06/19 21:26:15;;;;;;;;;;;27.30;91.80;;;26.25;57.71;94976.59;10469063;28;1939;-71
2022/06/19 21:31:18;;;;;;;;;;;27.20;92.40;;;26.13;58.02;94980.53;10475056;28;1988;-71
2022/06/19 21:36:21;;;;;;;;;;;27.10;92.80;;;26.00;58.62;94977.38;10468879;28;1885;-73
2022/06/19 21:41:24;;;;;;;;;;;27.00;93.30;;;25.96;59.31;94973.03;10471018;28;1880;-72
2022/06/19 21:46:29;;;;;;;;;;;26.90;93.20;;;25.88;59.38;94970.28;10473175;28;1901;-71
2022/06/19 21:51:32;;;;;;;;;;;26.80;93.30;;;25.84;59.19;94964.00;10475466;28;1979;-72
2022/06/19 21:56:35;;;;;;;;;;;26.80;93.50;;;25.90;57.86;94958.09;10468999;28;1904;-73
2022/06/19 22:01:37;;;;;;;;;;;26.70;93.10;;;25.81;58.32;94959.25;10473378;28;1758;-73
2022/06/19 22:06:41;;;;;;;;;;;26.60;93.10;;;25.73;57.82;94951.41;10472368;28;1859;-73
2022/06/19 22:17:05;;;;;;;;;;;26.50;92.70;;;25.63;57.55;94963.91;10472493;28;1806;-71
2022/06/19 22:22:08;;;;;;;;;;;26.50;92.80;;;25.59;57.07;94952.91;10471865;28;1773;-71
2022/06/19 22:27:14;;;;;;;;;;;26.40;92.70;;;25.59;56.41;94946.63;10474655;28;1997;-73
2022/06/19 22:32:17;;;;;;;;;;;26.30;92.40;;;25.54;56.06;94942.28;10479191;28;1808;-72
2022/06/19 22:37:21;;;;;;;;;;;26.40;92.10;;;25.50;55.79;94940.69;10474255;28;1901;-72
2022/06/19 22:42:25;;;;;;;;;;;26.30;91.90;;;25.46;55.71;94953.66;10474498;28;1833;-73
2022/06/19 22:47:28;;;;;;;;;;;26.30;91.80;;;25.38;56.18;94946.56;10505949;28;1950;-72
2022/06/19 22:52:33;;;;;;;;;;;26.20;92.10;;;25.29;56.25;94942.22;10485758;28;1737;-73
2022/06/19 22:57:35;;;;;;;;;;;26.20;92.20;;;25.12;57.12;94937.44;10478625;28;1806;-71
2022/06/19 23:02:41;;;;;;;;;;;26.20;92.50;;;24.96;57.75;94925.97;10470743;28;1784;-74
2022/06/19 23:07:47;;;;;;;;;;;25.90;92.50;;;24.96;58.59;94928.72;10481855;28;1938;-73
2022/06/19 23:12:50;;;;;;;;;;;25.70;93.30;;;24.90;59.12;94916.50;10474920;28;1819;-72
2022/06/19 23:17:54;;;;;;;;;;;25.70;94.10;;;24.78;59.99;94921.16;10479186;28;1891;-72
2022/06/19 23:22:57;;;;;;;;;;;26.10;98.90;;;24.69;60.75;94912.50;10475852;28;2194;-73
2022/06/19 23:28:00;;;;;;;;;;;25.50;95.10;;;24.62;61.64;94906.97;10476970;28;1976;-71
2022/06/19 23:33:03;;;;;;;;;;;25.40;96.30;;;24.47;61.98;94894.31;10477719;28;1803;-72
2022/06/19 23:38:06;;;;;;;;;;;25.30;95.70;;;24.42;62.67;94891.91;10477588;28;2015;-73
2022/06/19 23:43:08;;;;;;;;;;;25.20;96.40;;;24.31;63.09;94883.59;10476387;28;1834;-72
2022/06/19 23:48:12;;;;;;;;;;;25.10;96.50;;;24.20;63.49;94888.22;10472467;28;1975;-71
2022/06/19 23:53:16;;;;;;;;;;;25.10;96.80;;;24.22;64.19;94885.88;10472419;28;1907;-71
2022/06/19 23:58:19;;;;;;;;;;;25.00;97.50;;;24.35;64.01;94891.88;10471946;28;1842;-71
